Time;durP1;ratioP1;P1;durP2;ratioP2;P2;SDS_P1;SDS_P2;PMS_P1;PMS_P2;Temp;Humidity;BMP_temperature;BMP_pressure;BME280_temperature;BME280_humidity;BME280_pressure;Samples;Min_cycle;Max_cycle;Signal;HPM_P1;HPM_P2
2022/01/02 00:01:21;;;;;;;12.15;6.97;;;;;;;;;;5061474;28;20689;-63
2022/01/02 00:03:51;;;;;;;14.23;6.93;;;;;;;;;;5084287;28;20028;-63
2022/01/02 00:06:23;;;;;;;11.45;6.53;;;;;;;;;;5079912;28;20086;-63
2022/01/02 00:08:53;;;;;;;13.55;6.95;;;;;;;;;;5083713;28;20044;-63
2022/01/02 00:11:23;;;;;;;11.50;6.53;;;;;;;;;;5086219;28;20075;-63
2022/01/02 00:13:50;;;;;;;9.65;6.53;;;;;;;;;;5079605;28;20546;-63
2022/01/02 00:16:17;;;;;;;10.48;6.32;;;;;;;;;;5077389;28;20083;-63
2022/01/02 00:18:51;;;;;;;10.38;6.55;;;;;;;;;;5083507;28;20137;-63
2022/01/02 00:21:18;;;;;;;11.90;7.18;;;;;;;;;;5066455;28;20092;-63
2022/01/02 00:23:57;;;;;;;12.00;7.13;;;;;;;;;;5081576;28;20033;-63
2022/01/02 00:26:33;;;;;;;13.77;6.43;;;;;;;;;;5082290;28;20059;-63
2022/01/02 00:28:59;;;;;;;12.00;7.40;;;;;;;;;;5080609;28;20043;-62
2022/01/02 00:31:26;;;;;;;11.65;7.05;;;;;;;;;;5074527;28;20032;-62
2022/01/02 00:33:53;;;;;;;10.57;6.90;;;;;;;;;;5074277;28;20032;-62
2022/01/02 00:36:19;;;;;;;12.65;6.97;;;;;;;;;;5100155;28;20069;-62
2022/01/02 00:38:45;;;;;;;13.98;6.70;;;;;;;;;;5080006;28;20079;-63
2022/01/02 00:41:11;;;;;;;11.82;6.43;;;;;;;;;;5079895;28;20040;-64
2022/01/02 00:43:37;;;;;;;9.13;5.38;;;;;;;;;;5060065;28;20135;-65
2022/01/02 00:46:05;;;;;;;10.90;6.00;;;;;;;;;;5061674;28;20165;-63
2022/01/02 00:48:33;;;;;;;11.25;6.03;;;;;;;;;;5079650;28;20043;-63
2022/01/02 00:51:03;;;;;;;9.95;5.85;;;;;;;;;;5064448;28;20047;-63
2022/01/02 00:53:33;;;;;;;12.25;6.93;;;;;;;;;;5065633;28;20047;-62
2022/01/02 00:56:00;;;;;;;13.63;6.38;;;;;;;;;;5080164;28;20048;-64
2022/01/02 00:58:31;;;;;;;13.55;6.75;;;;;;;;;;5081076;28;20469;-62
2022/01/02 01:01:00;;;;;;;13.52;6.57;;;;;;;;;;5078041;28;20048;-63
2022/01/02 01:03:30;;;;;;;12.68;6.75;;;;;;;;;;5092815;28;20050;-63
2022/01/02 01:05:57;;;;;;;13.20;6.25;;;;;;;;;;5079187;28;20056;-63
2022/01/02 01:08:23;;;;;;;12.20;7.03;;;;;;;;;;5085227;28;20114;-64
2022/01/02 01:10:50;;;;;;;12.57;6.28;;;;;;;;;;5077182;28;20043;-63
2022/01/02 01:13:17;;;;;;;11.88;6.05;;;;;;;;;;5099058;28;20092;-63
2022/01/02 01:15:43;;;;;;;15.75;6.82;;;;;;;;;;5078483;28;20118;-63
2022/01/02 01:18:09;;;;;;;12.48;6.75;;;;;;;;;;5095120;28;20092;-63
2022/01/02 01:20:39;;;;;;;14.88;6.80;;;;;;;;;;5063236;28;20119;-63
2022/01/02 01:23:06;;;;;;;14.98;6.88;;;;;;;;;;5096723;28;20489;-63
2022/01/02 01:25:33;;;;;;;15.90;7.35;;;;;;;;;;5101181;28;20378;-63
2022/01/02 01:28:00;;;;;;;13.07;6.80;;;;;;;;;;5081822;28;20043;-62
2022/01/02 01:30:27;;;;;;;16.73;6.97;;;;;;;;;;5064687;28;20044;-62
2022/01/02 01:32:54;;;;;;;12.48;6.72;;;;;;;;;;5078182;28;20101;-62
2022/01/02 01:35:20;;;;;;;14.80;6.93;;;;;;;;;;5077813;28;20047;-62
2022/01/02 01:37:46;;;;;;;19.92;7.15;;;;;;;;;;5078122;28;20043;-62
2022/01/02 01:40:13;;;;;;;13.18;7.07;;;;;;;;;;5082736;28;20490;-62
2022/01/02 01:42:42;;;;;;;13.07;6.97;;;;;;;;;;5062398;28;20050;-63
2022/01/02 01:47:50;;;;;;;16.33;7.65;;;;;;;;;;5078681;28;20040;-63
2022/01/02 01:50:17;;;;;;;17.35;7.90;;;;;;;;;;5079270;28;20100;-62
2022/01/02 01:52:43;;;;;;;15.85;7.68;;;;;;;;;;5064854;28;20071;-62
2022/01/02 01:55:10;;;;;;;16.20;8.93;;;;;;;;;;5095645;28;20492;-63
2022/01/02 01:57:36;;;;;;;13.68;7.72;;;;;;;;;;5076706;28;20421;-63
2022/01/02 02:00:05;;;;;;;15.70;8.15;;;;;;;;;;5097371;28;20048;-64
2022/01/02 02:02:31;;;;;;;17.23;7.93;;;;;;;;;;5095567;28;20040;-62
2022/01/02 02:04:57;;;;;;;19.48;9.07;;;;;;;;;;5095350;28;20084;-62
2022/01/02 02:07:28;;;;;;;16.65;8.63;;;;;;;;;;5064221;28;20418;-62
2022/01/02 02:12:20;;;;;;;17.73;9.80;;;;;;;;;;5079632;28;20044;-62
2022/01/02 02:14:47;;;;;;;20.92;9.88;;;;;;;;;;5080554;28;20497;-62
2022/01/02 02:17:13;;;;;;;16.55;9.40;;;;;;;;;;5081490;28;20052;-61
2022/01/02 02:19:39;;;;;;;19.73;10.25;;;;;;;;;;5082206;28;20382;-62
2022/01/02 02:22:06;;;;;;;20.42;10.18;;;;;;;;;;5076846;28;20127;-61
2022/01/02 02:24:33;;;;;;;21.83;10.02;;;;;;;;;;5061747;28;20040;-61
2022/01/02 02:26:59;;;;;;;15.80;8.75;;;;;;;;;;5102691;28;20163;-62
2022/01/02 02:29:25;;;;;;;20.20;10.20;;;;;;;;;;5061959;28;20127;-61
2022/01/02 02:31:54;;;;;;;18.38;9.95;;;;;;;;;;5080880;28;20028;-62
2022/01/02 02:34:20;;;;;;;22.88;11.70;;;;;;;;;;5081250;28;20058;-62
2022/01/02 02:36:46;;;;;;;18.33;11.55;;;;;;;;;;5077030;28;20046;-62
2022/01/02 02:39:12;;;;;;;18.70;11.48;;;;;;;;;;5081359;28;20071;-62
2022/01/02 02:41:41;;;;;;;23.20;11.27;;;;;;;;;;5093073;28;20113;-62
2022/01/02 02:44:18;;;;;;;23.50;13.20;;;;;;;;;;5078269;28;20485;-63
2022/01/02 02:49:29;;;;;;;20.52;12.82;;;;;;;;;;5073728;28;20541;-63
2022/01/02 02:52:05;;;;;;;26.63;13.95;;;;;;;;;;5075846;28;20039;-63
2022/01/02 02:54:32;;;;;;;29.23;14.88;;;;;;;;;;5080461;28;20043;-63
2022/01/02 02:56:59;;;;;;;27.73;16.15;;;;;;;;;;5079765;28;20062;-63
2022/01/02 02:59:27;;;;;;;28.92;16.75;;;;;;;;;;5075356;28;20039;-63
2022/01/02 03:01:53;;;;;;;32.92;16.88;;;;;;;;;;5085140;28;20079;-63
2022/01/02 03:04:20;;;;;;;30.13;16.88;;;;;;;;;;5085341;28;20489;-63
2022/01/02 03:06:46;;;;;;;35.30;17.50;;;;;;;;;;5060282;28;20084;-65
2022/01/02 03:09:13;;;;;;;38.53;19.73;;;;;;;;;;5063489;28;20040;-63
2022/01/02 03:11:40;;;;;;;28.73;15.77;;;;;;;;;;5064016;28;20046;-63
2022/01/02 03:14:07;;;;;;;32.63;17.15;;;;;;;;;;5059204;28;20048;-64
2022/01/02 03:16:33;;;;;;;35.80;18.23;;;;;;;;;;5074336;28;20046;-63
2022/01/02 03:18:59;;;;;;;42.15;22.80;;;;;;;;;;5078367;28;20044;-63
2022/01/02 03:21:26;;;;;;;40.28;21.67;;;;;;;;;;5077857;28;20043;-64
2022/01/02 03:23:52;;;;;;;56.60;25.88;;;;;;;;;;5072207;28;20040;-63
2022/01/02 03:26:19;;;;;;;38.75;21.65;;;;;;;;;;5078885;28;20492;-64
2022/01/02 03:28:45;;;;;;;48.08;23.42;;;;;;;;;;5057725;28;20420;-63
2022/01/02 03:31:11;;;;;;;39.67;20.75;;;;;;;;;;5076665;28;20043;-63
2022/01/02 03:33:37;;;;;;;45.42;21.17;;;;;;;;;;5079631;28;20074;-63
2022/01/02 03:36:04;;;;;;;39.80;21.23;;;;;;;;;;5079472;28;20157;-63
2022/01/02 03:38:30;;;;;;;38.00;20.10;;;;;;;;;;5100983;28;20040;-62
2022/01/02 03:40:56;;;;;;;42.92;21.85;;;;;;;;;;5082858;28;20040;-63
2022/01/02 03:43:22;;;;;;;34.90;19.65;;;;;;;;;;5098851;28;22002;-63
2022/01/02 03:45:49;;;;;;;38.90;22.10;;;;;;;;;;5076395;28;20028;-62
2022/01/02 03:48:15;;;;;;;42.63;23.85;;;;;;;;;;5097622;28;20105;-63
2022/01/02 03:50:41;;;;;;;37.63;23.08;;;;;;;;;;5078092;28;20044;-62
2022/01/02 03:53:07;;;;;;;44.25;23.17;;;;;;;;;;5079617;28;20123;-62
2022/01/02 03:55:36;;;;;;;45.22;25.45;;;;;;;;;;5075751;28;20042;-62
2022/01/02 03:58:03;;;;;;;44.42;25.42;;;;;;;;;;5079134;28;20559;-63
2022/01/02 04:00:29;;;;;;;41.15;25.38;;;;;;;;;;5078163;28;20039;-62
2022/01/02 04:02:55;;;;;;;40.15;24.95;;;;;;;;;;5062749;28;20058;-62
2022/01/02 04:05:21;;;;;;;48.15;29.63;;;;;;;;;;5077986;28;20361;-62
2022/01/02 04:07:48;;;;;;;63.30;32.85;;;;;;;;;;5079752;28;20087;-62
2022/01/02 04:10:15;;;;;;;46.80;28.38;;;;;;;;;;5065430;28;20367;-62
2022/01/02 04:12:42;;;;;;;53.88;31.17;;;;;;;;;;5076446;28;20123;-62
2022/01/02 04:15:09;;;;;;;48.40;28.98;;;;;;;;;;5083055;28;20032;-62
2022/01/02 04:17:36;;;;;;;50.38;29.40;;;;;;;;;;5067441;28;20071;-62
2022/01/02 04:20:03;;;;;;;51.78;31.50;;;;;;;;;;5079502;28;20141;-63
2022/01/02 04:22:29;;;;;;;71.82;34.67;;;;;;;;;;5076876;28;20123;-63
2022/01/02 04:24:55;;;;;;;59.42;33.00;;;;;;;;;;5077235;28;20037;-62
2022/01/02 04:27:23;;;;;;;53.13;33.15;;;;;;;;;;5082062;28;20043;-62
2022/01/02 04:29:49;;;;;;;64.38;36.50;;;;;;;;;;5076572;28;20044;-62
2022/01/02 04:32:15;;;;;;;56.83;33.05;;;;;;;;;;5081035;28;20082;-63
2022/01/02 04:34:42;;;;;;;48.33;29.10;;;;;;;;;;5076077;28;20097;-62
2022/01/02 04:37:08;;;;;;;51.13;29.60;;;;;;;;;;5077242;28;20048;-62
2022/01/02 04:39:34;;;;;;;50.03;30.27;;;;;;;;;;5075675;28;20498;-62
2022/01/02 04:42:00;;;;;;;54.90;30.30;;;;;;;;;;5080887;28;20107;-64
2022/01/02 04:44:27;;;;;;;57.63;30.40;;;;;;;;;;5078956;28;20038;-63
2022/01/02 04:46:53;;;;;;;49.88;27.45;;;;;;;;;;5076954;28;20482;-63
2022/01/02 04:49:20;;;;;;;51.92;29.20;;;;;;;;;;5078084;28;20028;-63
2022/01/02 04:51:46;;;;;;;46.63;26.85;;;;;;;;;;5064693;28;20089;-62
2022/01/02 04:54:14;;;;;;;54.25;28.88;;;;;;;;;;5077177;28;20402;-62
2022/01/02 04:56:40;;;;;;;48.35;27.75;;;;;;;;;;5081595;28;20056;-63
2022/01/02 04:59:06;;;;;;;45.22;26.38;;;;;;;;;;5052330;28;20044;-63
2022/01/02 05:01:32;;;;;;;44.67;23.50;;;;;;;;;;5076473;28;20105;-62
2022/01/02 05:03:58;;;;;;;39.20;22.75;;;;;;;;;;5082763;28;20039;-62
2022/01/02 05:06:24;;;;;;;41.58;22.98;;;;;;;;;;5082402;28;20418;-62
2022/01/02 05:08:50;;;;;;;42.67;23.80;;;;;;;;;;5078802;28;20477;-63
2022/01/02 05:11:17;;;;;;;42.38;20.88;;;;;;;;;;5081350;28;20090;-63
2022/01/02 05:13:44;;;;;;;38.35;21.45;;;;;;;;;;5075774;28;20070;-63
2022/01/02 05:16:10;;;;;;;35.97;20.05;;;;;;;;;;5073988;28;20047;-62
2022/01/02 05:18:36;;;;;;;31.23;18.33;;;;;;;;;;5075044;28;20036;-63
2022/01/02 05:21:03;;;;;;;37.22;19.25;;;;;;;;;;5081619;28;20056;-62
2022/01/02 05:23:29;;;;;;;33.22;19.88;;;;;;;;;;5080242;28;20050;-62
2022/01/02 05:25:55;;;;;;;45.03;22.73;;;;;;;;;;5077855;28;20038;-63
2022/01/02 05:28:24;;;;;;;41.72;20.65;;;;;;;;;;5078560;28;20044;-62
2022/01/02 05:30:51;;;;;;;25.48;15.60;;;;;;;;;;5079349;28;20500;-62
2022/01/02 05:33:17;;;;;;;32.72;17.33;;;;;;;;;;5074272;28;20048;-63
2022/01/02 05:35:43;;;;;;;37.30;20.38;;;;;;;;;;5073048;28;20235;-62
2022/01/02 05:38:09;;;;;;;35.67;18.05;;;;;;;;;;5077267;28;20443;-63
2022/01/02 05:40:35;;;;;;;34.28;18.95;;;;;;;;;;5076490;28;20039;-63
2022/01/02 05:43:02;;;;;;;38.03;20.05;;;;;;;;;;5061533;28;20076;-64
2022/01/02 05:45:28;;;;;;;35.90;18.35;;;;;;;;;;5058797;28;20447;-63
2022/01/02 05:47:55;;;;;;;35.30;20.05;;;;;;;;;;5075465;28;20037;-64
2022/01/02 05:50:21;;;;;;;38.03;19.60;;;;;;;;;;5076856;28;20055;-63
2022/01/02 05:52:47;;;;;;;33.88;17.92;;;;;;;;;;5072767;28;20428;-63
2022/01/02 05:55:13;;;;;;;37.63;19.00;;;;;;;;;;5060011;28;20139;-63
2022/01/02 05:57:39;;;;;;;36.88;18.50;;;;;;;;;;5074323;28;20044;-63
2022/01/02 06:00:06;;;;;;;34.05;16.95;;;;;;;;;;5059743;28;20052;-62
2022/01/02 06:02:32;;;;;;;38.17;17.05;;;;;;;;;;5074634;28;20051;-62
2022/01/02 06:04:59;;;;;;;36.53;17.10;;;;;;;;;;5080139;28;20410;-62
2022/01/02 06:07:25;;;;;;;35.78;16.45;;;;;;;;;;5078752;28;20050;-62
2022/01/02 06:09:51;;;;;;;32.15;14.93;;;;;;;;;;5078118;28;20039;-62
2022/01/02 06:12:17;;;;;;;34.83;16.77;;;;;;;;;;5078836;28;20091;-62
2022/01/02 06:14:43;;;;;;;29.02;12.95;;;;;;;;;;5063859;28;20069;-62
2022/01/02 06:17:09;;;;;;;25.17;12.45;;;;;;;;;;5064839;28;20044;-62
2022/01/02 06:19:35;;;;;;;31.52;13.13;;;;;;;;;;5077403;28;20144;-62
2022/01/02 06:22:01;;;;;;;29.27;12.82;;;;;;;;;;5082689;28;20047;-64
2022/01/02 06:24:27;;;;;;;31.33;12.73;;;;;;;;;;5080509;28;20395;-62
2022/01/02 06:26:54;;;;;;;33.15;12.45;;;;;;;;;;5096195;28;20044;-62
2022/01/02 06:29:20;;;;;;;24.58;10.35;;;;;;;;;;5079337;28;20067;-62
2022/01/02 06:31:46;;;;;;;28.60;12.43;;;;;;;;;;5079909;28;20041;-62
2022/01/02 06:34:12;;;;;;;30.50;12.68;;;;;;;;;;5077386;28;20044;-62
2022/01/02 06:36:38;;;;;;;24.83;9.73;;;;;;;;;;5075380;28;20119;-62
2022/01/02 06:39:04;;;;;;;26.38;10.73;;;;;;;;;;5094929;28;20040;-63
2022/01/02 06:41:30;;;;;;;28.80;11.25;;;;;;;;;;5076216;28;20118;-63
2022/01/02 06:43:56;;;;;;;30.77;11.45;;;;;;;;;;5096093;28;20096;-62
2022/01/02 06:46:23;;;;;;;23.85;9.52;;;;;;;;;;5079799;28;20147;-62
2022/01/02 06:48:49;;;;;;;24.98;10.25;;;;;;;;;;5094611;28;20032;-62
2022/01/02 06:51:15;;;;;;;22.60;8.73;;;;;;;;;;5099602;28;20061;-62
2022/01/02 06:53:41;;;;;;;24.75;9.70;;;;;;;;;;5094405;28;20434;-62
2022/01/02 06:56:07;;;;;;;23.52;9.07;;;;;;;;;;5081263;28;20105;-62
2022/01/02 06:58:38;;;;;;;22.05;8.73;;;;;;;;;;5100051;28;20101;-61
2022/01/02 07:01:04;;;;;;;21.88;8.75;;;;;;;;;;5076811;28;20074;-62
2022/01/02 07:03:31;;;;;;;23.65;9.10;;;;;;;;;;5097596;28;20052;-63
2022/01/02 07:05:57;;;;;;;26.42;9.73;;;;;;;;;;5100257;28;20164;-62
2022/01/02 07:08:23;;;;;;;27.42;9.45;;;;;;;;;;5066941;28;20122;-62
2022/01/02 07:10:49;;;;;;;21.38;7.70;;;;;;;;;;5102388;28;20474;-62
2022/01/02 07:13:15;;;;;;;22.80;8.52;;;;;;;;;;5089424;28;20478;-62
2022/01/02 07:15:41;;;;;;;19.27;9.43;;;;;;;;;;5064354;28;20544;-62
2022/01/02 07:18:07;;;;;;;20.05;7.32;;;;;;;;;;5058778;28;20116;-62
2022/01/02 07:20:33;;;;;;;28.67;10.00;;;;;;;;;;5087406;28;20111;-62
2022/01/02 07:23:00;;;;;;;21.30;8.40;;;;;;;;;;5098442;28;20034;-62
2022/01/02 07:25:26;;;;;;;17.23;7.25;;;;;;;;;;5096835;28;20052;-63
2022/01/02 07:27:52;;;;;;;14.10;6.68;;;;;;;;;;5073808;28;20032;-62
2022/01/02 07:30:18;;;;;;;19.42;7.60;;;;;;;;;;5079592;28;20040;-63
2022/01/02 07:32:44;;;;;;;17.50;6.70;;;;;;;;;;5077290;28;20099;-62
2022/01/02 07:35:10;;;;;;;16.98;5.88;;;;;;;;;;5093730;28;20703;-63
2022/01/02 07:37:37;;;;;;;13.55;5.50;;;;;;;;;;5074895;28;20112;-63
2022/01/02 07:40:04;;;;;;;15.00;5.13;;;;;;;;;;5096406;28;20043;-62
2022/01/02 07:42:30;;;;;;;15.68;4.82;;;;;;;;;;5077781;28;20492;-63
2022/01/02 07:44:57;;;;;;;14.40;5.53;;;;;;;;;;5077167;28;20036;-62
2022/01/02 07:47:23;;;;;;;16.75;4.10;;;;;;;;;;5103701;28;20032;-62
2022/01/02 07:49:49;;;;;;;12.57;3.30;;;;;;;;;;5100510;28;20607;-62
2022/01/02 07:52:15;;;;;;;16.27;4.47;;;;;;;;;;5100480;28;20039;-62
2022/01/02 07:54:42;;;;;;;13.60;4.75;;;;;;;;;;5102783;28;20099;-62
2022/01/02 07:57:08;;;;;;;11.82;3.72;;;;;;;;;;5083777;28;20382;-62
2022/01/02 07:59:34;;;;;;;13.57;4.40;;;;;;;;;;5107049;28;20035;-62
2022/01/02 08:02:00;;;;;;;18.33;4.63;;;;;;;;;;5081682;28;20044;-62
2022/01/02 08:04:26;;;;;;;17.55;5.28;;;;;;;;;;5084983;28;20532;-62
2022/01/02 08:06:52;;;;;;;15.20;5.60;;;;;;;;;;5100702;28;20059;-62
2022/01/02 08:09:18;;;;;;;16.65;5.53;;;;;;;;;;5081482;28;20039;-63
2022/01/02 08:11:44;;;;;;;17.60;5.30;;;;;;;;;;5082019;28;20482;-62
2022/01/02 08:14:11;;;;;;;13.45;4.18;;;;;;;;;;5084326;28;20040;-62
2022/01/02 08:16:38;;;;;;;12.77;4.07;;;;;;;;;;5085218;28;20044;-62
2022/01/02 08:19:06;;;;;;;12.70;3.85;;;;;;;;;;5080818;28;20126;-62
2022/01/02 08:21:32;;;;;;;13.65;3.42;;;;;;;;;;5096972;28;20047;-63
2022/01/02 08:23:58;;;;;;;12.85;4.18;;;;;;;;;;5084883;28;20064;-62
2022/01/02 08:26:25;;;;;;;12.95;4.40;;;;;;;;;;5085612;28;20348;-62
2022/01/02 08:28:52;;;;;;;12.50;4.43;;;;;;;;;;5082046;28;20028;-62
2022/01/02 08:31:18;;;;;;;16.48;5.15;;;;;;;;;;5068379;28;20177;-62
2022/01/02 08:33:44;;;;;;;14.68;4.63;;;;;;;;;;5102681;28;20050;-63
2022/01/02 08:36:10;;;;;;;15.73;4.65;;;;;;;;;;5079308;28;20048;-62
2022/01/02 08:38:36;;;;;;;12.13;4.38;;;;;;;;;;5098354;28;20039;-64
2022/01/02 08:41:02;;;;;;;10.98;4.32;;;;;;;;;;5064420;28;20036;-64
2022/01/02 08:43:28;;;;;;;13.48;5.28;;;;;;;;;;5066898;28;20051;-63
2022/01/02 08:45:54;;;;;;;12.43;4.82;;;;;;;;;;5083349;28;20027;-63
2022/01/02 08:48:21;;;;;;;16.88;5.10;;;;;;;;;;5065712;28;20035;-63
2022/01/02 08:50:47;;;;;;;13.90;5.43;;;;;;;;;;5054893;28;20500;-63
2022/01/02 08:53:13;;;;;;;16.20;5.25;;;;;;;;;;5083384;28;20039;-64
2022/01/02 08:55:39;;;;;;;10.88;4.55;;;;;;;;;;5065238;28;20040;-64
2022/01/02 08:58:08;;;;;;;12.20;5.13;;;;;;;;;;5060173;28;20055;-64
2022/01/02 09:00:34;;;;;;;11.13;4.35;;;;;;;;;;5084160;28;20358;-64
2022/01/02 09:03:01;;;;;;;9.52;4.13;;;;;;;;;;5081826;28;20489;-65
2022/01/02 09:05:27;;;;;;;12.00;3.65;;;;;;;;;;5073711;28;20071;-64
2022/01/02 09:07:55;;;;;;;11.93;4.07;;;;;;;;;;5075792;28;20048;-65
2022/01/02 09:10:22;;;;;;;12.05;5.03;;;;;;;;;;5079695;28;20048;-62
2022/01/02 09:12:48;;;;;;;9.88;4.70;;;;;;;;;;5076884;28;20036;-62
2022/01/02 09:15:14;;;;;;;11.90;4.90;;;;;;;;;;5079738;28;20069;-62
2022/01/02 09:17:41;;;;;;;10.70;5.43;;;;;;;;;;5060014;28;20469;-62
2022/01/02 09:20:10;;;;;;;9.98;5.50;;;;;;;;;;5079914;28;20126;-62
2022/01/02 09:22:43;;;;;;;11.45;5.20;;;;;;;;;;5077046;28;20071;-62
2022/01/02 09:25:10;;;;;;;8.30;4.93;;;;;;;;;;5079555;28;20071;-62
2022/01/02 09:27:37;;;;;;;12.75;5.35;;;;;;;;;;5073641;28;20076;-61
2022/01/02 09:30:06;;;;;;;14.15;6.05;;;;;;;;;;5081036;28;21269;-62
2022/01/02 09:32:34;;;;;;;11.98;5.60;;;;;;;;;;5076274;28;20036;-62
2022/01/02 09:35:01;;;;;;;9.82;5.55;;;;;;;;;;5074709;28;20080;-62
2022/01/02 09:37:28;;;;;;;7.60;4.75;;;;;;;;;;5078717;28;20054;-62
2022/01/02 09:39:54;;;;;;;9.02;4.50;;;;;;;;;;5076876;28;20123;-62
2022/01/02 09:42:20;;;;;;;8.95;3.58;;;;;;;;;;5079929;28;20083;-61
2022/01/02 09:44:46;;;;;;;6.82;3.30;;;;;;;;;;5069024;28;20048;-61
2022/01/02 09:47:12;;;;;;;5.57;3.38;;;;;;;;;;5069242;28;20047;-61
2022/01/02 09:49:39;;;;;;;7.15;3.53;;;;;;;;;;5070606;28;20032;-61
2022/01/02 09:52:06;;;;;;;6.47;3.47;;;;;;;;;;5070189;28;20044;-62
2022/01/02 09:54:33;;;;;;;9.52;5.70;;;;;;;;;;5069174;28;20060;-62
2022/01/02 09:56:59;;;;;;;9.70;5.88;;;;;;;;;;5069125;28;20040;-62
2022/01/02 09:59:25;;;;;;;10.30;5.75;;;;;;;;;;5070067;28;20083;-61
2022/01/02 10:01:51;;;;;;;14.52;6.63;;;;;;;;;;5069020;28;20097;-62
2022/01/02 10:04:34;;;;;;;11.25;5.20;;;;;;;;;;5068465;28;20045;-62
2022/01/02 10:07:00;;;;;;;10.73;5.32;;;;;;;;;;5086880;28;20147;-61
2022/01/02 10:09:34;;;;;;;11.90;6.18;;;;;;;;;;5072093;28;20046;-61
2022/01/02 10:12:19;;;;;;;9.48;6.07;;;;;;;;;;5071846;28;20036;-61
2022/01/02 10:14:45;;;;;;;9.20;5.60;;;;;;;;;;5090353;28;20044;-61
2022/01/02 10:17:11;;;;;;;12.90;6.65;;;;;;;;;;5071808;28;20122;-61
2022/01/02 10:19:38;;;;;;;12.82;7.40;;;;;;;;;;5071760;28;20069;-61
2022/01/02 10:22:06;;;;;;;13.93;7.50;;;;;;;;;;5071733;28;20109;-61
2022/01/02 10:24:37;;;;;;;15.93;8.27;;;;;;;;;;5071869;28;20106;-61
2022/01/02 10:27:05;;;;;;;17.17;8.60;;;;;;;;;;5090444;28;20268;-61
2022/01/02 10:29:50;;;;;;;13.48;7.70;;;;;;;;;;5071739;28;20043;-62
2022/01/02 10:32:32;;;;;;;14.80;8.45;;;;;;;;;;5071981;28;20070;-61
2022/01/02 10:35:10;;;;;;;14.30;7.55;;;;;;;;;;5071425;28;20053;-62
2022/01/02 10:37:37;;;;;;;17.27;10.50;;;;;;;;;;5071961;28;20547;-62
2022/01/02 10:40:04;;;;;;;15.95;10.13;;;;;;;;;;5089448;28;20036;-62
2022/01/02 10:42:41;;;;;;;15.52;10.60;;;;;;;;;;5089798;28;20032;-62
2022/01/02 10:45:07;;;;;;;17.98;10.80;;;;;;;;;;5071499;28;20135;-62
2022/01/02 10:47:33;;;;;;;14.68;9.55;;;;;;;;;;5071786;28;20506;-62
2022/01/02 10:50:04;;;;;;;16.25;10.90;;;;;;;;;;5089947;28;20043;-62
2022/01/02 10:52:40;;;;;;;14.35;8.98;;;;;;;;;;5090247;28;20093;-62
2022/01/02 10:55:24;;;;;;;16.52;7.93;;;;;;;;;;5071958;28;20043;-62
2022/01/02 10:57:51;;;;;;;12.60;8.45;;;;;;;;;;5089541;28;20505;-64
2022/01/02 11:00:18;;;;;;;16.65;9.77;;;;;;;;;;5071422;28;20490;-63
2022/01/02 11:02:44;;;;;;;20.15;9.38;;;;;;;;;;5071472;28;20040;-63
2022/01/02 11:05:14;;;;;;;17.80;8.55;;;;;;;;;;5089027;28;20036;-63
2022/01/02 11:07:41;;;;;;;16.60;8.27;;;;;;;;;;5071311;28;20047;-63
2022/01/02 11:10:07;;;;;;;16.35;7.80;;;;;;;;;;5071118;28;20044;-63
2022/01/02 11:12:33;;;;;;;16.42;7.35;;;;;;;;;;5070936;28;20138;-63
2022/01/02 11:15:00;;;;;;;15.80;7.07;;;;;;;;;;5090044;28;20398;-62
2022/01/02 11:17:26;;;;;;;20.77;6.28;;;;;;;;;;5058369;28;20036;-63
2022/01/02 11:19:53;;;;;;;15.55;6.88;;;;;;;;;;5092403;28;20054;-63
2022/01/02 11:22:45;;;;;;;15.15;5.82;;;;;;;;;;5075087;28;20050;-63
2022/01/02 11:25:19;;;;;;;19.85;5.97;;;;;;;;;;5071379;28;20044;-63
2022/01/02 11:27:47;;;;;;;14.32;5.00;;;;;;;;;;5058524;28;20041;-62
2022/01/02 11:30:29;;;;;;;20.02;5.18;;;;;;;;;;5075316;28;20048;-62
2022/01/02 11:33:05;;;;;;;13.93;3.90;;;;;;;;;;5075182;28;20428;-62
2022/01/02 11:35:32;;;;;;;12.95;3.90;;;;;;;;;;5075030;28;20123;-62
2022/01/02 11:38:02;;;;;;;17.17;3.22;;;;;;;;;;5093550;28;20131;-62
2022/01/02 11:40:48;;;;;;;9.52;3.08;;;;;;;;;;5074883;28;20123;-62
2022/01/02 11:43:33;;;;;;;13.43;3.65;;;;;;;;;;5075057;28;20489;-62
2022/01/02 11:46:14;;;;;;;10.85;2.47;;;;;;;;;;5074592;28;20458;-62
2022/01/02 11:48:41;;;;;;;13.40;3.08;;;;;;;;;;5074856;28;20562;-62
2022/01/02 11:51:07;;;;;;;14.38;3.63;;;;;;;;;;5074757;28;20425;-62
2022/01/02 11:53:36;;;;;;;11.15;3.00;;;;;;;;;;5074581;28;20079;-62
2022/01/02 11:56:02;;;;;;;9.38;2.80;;;;;;;;;;5074277;28;20048;-63
2022/01/02 11:58:38;;;;;;;10.07;2.63;;;;;;;;;;5075541;28;20083;-63
2022/01/02 12:01:04;;;;;;;8.70;2.85;;;;;;;;;;5092800;28;20040;-63
2022/01/02 12:03:44;;;;;;;9.48;2.38;;;;;;;;;;5092644;28;20044;-62
2022/01/02 12:06:22;;;;;;;11.98;3.45;;;;;;;;;;5073978;28;20056;-62
2022/01/02 12:08:49;;;;;;;11.20;2.47;;;;;;;;;;5074421;28;20455;-62
2022/01/02 12:11:34;;;;;;;13.38;2.63;;;;;;;;;;5074245;28;20506;-62
2022/01/02 12:14:09;;;;;;;9.43;2.92;;;;;;;;;;5092353;28;20482;-62
2022/01/02 12:16:40;;;;;;;10.13;2.80;;;;;;;;;;5074457;28;20036;-62
2022/01/02 12:19:08;;;;;;;11.60;2.47;;;;;;;;;;5074458;28;20089;-62
2022/01/02 12:21:34;;;;;;;9.20;2.25;;;;;;;;;;5074458;28;20040;-62
2022/01/02 12:24:02;;;;;;;12.98;2.85;;;;;;;;;;5073704;28;20494;-62
2022/01/02 12:26:30;;;;;;;11.32;2.17;;;;;;;;;;5057239;28;20054;-62
2022/01/02 12:28:58;;;;;;;11.75;2.55;;;;;;;;;;5073365;28;20438;-62
2022/01/02 12:31:35;;;;;;;15.82;2.78;;;;;;;;;;5057299;28;20477;-62
2022/01/02 12:34:04;;;;;;;9.00;1.63;;;;;;;;;;5073844;28;20051;-62
2022/01/02 12:36:30;;;;;;;13.00;2.20;;;;;;;;;;5091974;28;20040;-62
2022/01/02 12:38:57;;;;;;;10.30;1.65;;;;;;;;;;5073537;28;20186;-62
2022/01/02 12:41:28;;;;;;;11.65;1.95;;;;;;;;;;5091961;28;20083;-62
2022/01/02 12:43:57;;;;;;;12.88;1.92;;;;;;;;;;5091628;28;20482;-62
2022/01/02 12:46:37;;;;;;;11.68;1.80;;;;;;;;;;5073634;28;20155;-62
2022/01/02 12:49:04;;;;;;;12.48;2.33;;;;;;;;;;5077603;28;20096;-63
2022/01/02 12:51:31;;;;;;;9.70;1.60;;;;;;;;;;5077056;28;20047;-62
2022/01/02 12:54:11;;;;;;;10.07;1.15;;;;;;;;;;5078703;28;20410;-62
2022/01/02 12:56:37;;;;;;;13.15;2.10;;;;;;;;;;5083451;28;20462;-63
2022/01/02 12:59:21;;;;;;;7.93;0.95;;;;;;;;;;5089751;28;20054;-64
2022/01/02 13:02:06;;;;;;;14.82;1.75;;;;;;;;;;5063259;28;20387;-63
2022/01/02 13:04:34;;;;;;;13.35;1.95;;;;;;;;;;5078329;28;20050;-64
2022/01/02 13:07:05;;;;;;;13.27;1.85;;;;;;;;;;5065928;28;20158;-64
2022/01/02 13:09:40;;;;;;;7.82;1.48;;;;;;;;;;5099506;28;20511;-64
2022/01/02 13:12:14;;;;;;;9.05;1.33;;;;;;;;;;5086356;28;20259;-64
2022/01/02 13:14:42;;;;;;;11.95;1.77;;;;;;;;;;5065079;28;20508;-64
2022/01/02 13:17:10;;;;;;;8.48;1.38;;;;;;;;;;5076628;28;20689;-63
2022/01/02 13:19:38;;;;;;;10.75;1.48;;;;;;;;;;5101927;28;20038;-63
2022/01/02 13:22:06;;;;;;;5.80;0.60;;;;;;;;;;5080384;28;20047;-63
2022/01/02 13:24:34;;;;;;;14.18;1.38;;;;;;;;;;5085749;28;20043;-63
2022/01/02 13:27:02;;;;;;;9.15;1.20;;;;;;;;;;5100510;28;20039;-64
2022/01/02 13:29:28;;;;;;;11.30;1.05;;;;;;;;;;5082739;28;20073;-62
2022/01/02 13:31:56;;;;;;;10.55;1.02;;;;;;;;;;5072906;28;20047;-62
2022/01/02 13:34:26;;;;;;;9.63;1.30;;;;;;;;;;5078525;28;20040;-63
2022/01/02 13:36:56;;;;;;;9.32;1.10;;;;;;;;;;5082268;28;20127;-61
2022/01/02 13:39:42;;;;;;;6.72;0.70;;;;;;;;;;5095863;28;20063;-61
2022/01/02 13:42:09;;;;;;;9.55;1.20;;;;;;;;;;5078710;28;20052;-62
2022/01/02 13:44:36;;;;;;;7.57;0.85;;;;;;;;;;5082917;28;20028;-61
2022/01/02 13:47:03;;;;;;;12.63;0.95;;;;;;;;;;5099411;28;20455;-62
2022/01/02 13:49:44;;;;;;;7.28;0.82;;;;;;;;;;5061563;28;20044;-61
2022/01/02 13:52:10;;;;;;;10.65;1.38;;;;;;;;;;5078394;28;20059;-61
2022/01/02 13:54:36;;;;;;;8.27;0.70;;;;;;;;;;5079529;28;20048;-61
2022/01/02 13:57:05;;;;;;;12.60;1.38;;;;;;;;;;5061137;28;20044;-62
2022/01/02 13:59:32;;;;;;;6.03;0.80;;;;;;;;;;5099345;28;20043;-62
2022/01/02 14:01:58;;;;;;;8.63;0.75;;;;;;;;;;5099482;28;20035;-62
2022/01/02 14:04:24;;;;;;;8.55;0.80;;;;;;;;;;5104707;28;20062;-63
2022/01/02 14:06:50;;;;;;;9.23;1.35;;;;;;;;;;5103856;28;20412;-63
2022/01/02 14:09:17;;;;;;;7.68;0.70;;;;;;;;;;5081057;28;20047;-62
2022/01/02 14:11:46;;;;;;;6.78;0.70;;;;;;;;;;5081064;28;20038;-62
2022/01/02 14:14:23;;;;;;;11.55;1.17;;;;;;;;;;5068946;28;20054;-63
2022/01/02 14:19:39;;;;;;;8.98;0.90;;;;;;;;;;5098921;28;20108;-63
2022/01/02 14:22:05;;;;;;;10.50;1.27;;;;;;;;;;5068348;28;20071;-62
2022/01/02 14:24:31;;;;;;;9.30;1.17;;;;;;;;;;5083877;28;20035;-63
2022/01/02 14:26:57;;;;;;;10.57;1.08;;;;;;;;;;5075762;28;20046;-62
2022/01/02 14:29:24;;;;;;;11.20;0.90;;;;;;;;;;5085866;28;20039;-62
2022/01/02 14:31:51;;;;;;;14.27;1.00;;;;;;;;;;5071666;28;20040;-62
2022/01/02 14:34:17;;;;;;;12.63;1.08;;;;;;;;;;5085406;28;20101;-63
2022/01/02 14:36:43;;;;;;;12.57;1.30;;;;;;;;;;5094747;28;20438;-63
2022/01/02 14:39:09;;;;;;;11.60;1.35;;;;;;;;;;5080736;28;20443;-63
2022/01/02 14:41:37;;;;;;;13.93;1.40;;;;;;;;;;5076262;28;20062;-63
2022/01/02 14:44:04;;;;;;;9.80;0.93;;;;;;;;;;5075770;28;20123;-63